sensor_id;sensor_type;location;lat;lon;timestamp;temperature;humidity
24452;DHT22;13350;50.984;5.822;2023-10-13T00:00:47;17.90;99.90
24452;DHT22;13350;50.984;5.822;2023-10-13T00:03:14;17.90;99.90
24452;DHT22;13350;50.984;5.822;2023-10-13T00:05:45;17.80;99.90
24452;DHT22;13350;50.984;5.822;2023-10-13T00:08:13;17.90;99.90
24452;DHT22;13350;50.984;5.822;2023-10-13T00:10:40;17.90;99.90
24452;DHT22;13350;50.984;5.822;2023-10-13T00:13:07;17.90;99.90
24452;DHT22;13350;50.984;5.822;2023-10-13T00:15:39;17.90;99.90
24452;DHT22;13350;50.984;5.822;2023-10-13T00:18:10;17.90;99.90
24452;DHT22;13350;50.984;5.822;2023-10-13T00:20:41;18.00;99.90
24452;DHT22;13350;50.984;5.822;2023-10-13T00:23:15;18.00;99.90
24452;DHT22;13350;50.984;5.822;2023-10-13T00:25:47;18.00;99.90
24452;DHT22;13350;50.984;5.822;2023-10-13T00:28:22;18.00;99.90
24452;DHT22;13350;50.984;5.822;2023-10-13T00:30:50;17.90;99.90
24452;DHT22;13350;50.984;5.822;2023-10-13T00:33:18;17.90;99.90
24452;DHT22;13350;50.984;5.822;2023-10-13T00:35:49;17.80;99.90
24452;DHT22;13350;50.984;5.822;2023-10-13T00:38:18;17.90;99.90
24452;DHT22;13350;50.984;5.822;2023-10-13T00:40:48;17.80;99.90
24452;DHT22;13350;50.984;5.822;2023-10-13T00:43:19;17.80;99.90
24452;DHT22;13350;50.984;5.822;2023-10-13T00:45:58;17.80;99.90
24452;DHT22;13350;50.984;5.822;2023-10-13T00:48:33;17.80;99.90
24452;DHT22;13350;50.984;5.822;2023-10-13T00:51:07;17.90;99.90
24452;DHT22;13350;50.984;5.822;2023-10-13T00:53:35;17.90;99.90
24452;DHT22;13350;50.984;5.822;2023-10-13T00:56:05;17.80;99.90
24452;DHT22;13350;50.984;5.822;2023-10-13T00:58:32;17.90;99.90
24452;DHT22;13350;50.984;5.822;2023-10-13T01:00:59;17.80;99.90
24452;DHT22;13350;50.984;5.822;2023-10-13T01:03:43;17.90;99.90
24452;DHT22;13350;50.984;5.822;2023-10-13T01:06:11;17.80;99.90
24452;DHT22;13350;50.984;5.822;2023-10-13T01:08:39;17.80;99.90
24452;DHT22;13350;50.984;5.822;2023-10-13T01:11:09;17.80;99.90
24452;DHT22;13350;50.984;5.822;2023-10-13T01:13:36;17.80;99.90
24452;DHT22;13350;50.984;5.822;2023-10-13T01:16:03;17.80;99.90
24452;DHT22;13350;50.984;5.822;2023-10-13T01:18:33;17.80;99.90
24452;DHT22;13350;50.984;5.822;2023-10-13T01:21:05;17.80;99.90
24452;DHT22;13350;50.984;5.822;2023-10-13T01:23:33;17.80;99.90
24452;DHT22;13350;50.984;5.822;2023-10-13T01:26:03;17.80;99.90
24452;DHT22;13350;50.984;5.822;2023-10-13T01:28:31;17.90;99.90
24452;DHT22;13350;50.984;5.822;2023-10-13T01:31:10;17.90;99.90
24452;DHT22;13350;50.984;5.822;2023-10-13T01:33:43;17.80;99.90
24452;DHT22;13350;50.984;5.822;2023-10-13T01:36:09;17.80;99.90
24452;DHT22;13350;50.984;5.822;2023-10-13T01:38:39;17.80;99.90
24452;DHT22;13350;50.984;5.822;2023-10-13T01:41:08;17.80;99.90
24452;DHT22;13350;50.984;5.822;2023-10-13T01:43:35;17.80;99.90
24452;DHT22;13350;50.984;5.822;2023-10-13T01:46:02;17.80;99.90
24452;DHT22;13350;50.984;5.822;2023-10-13T01:48:29;17.80;99.90
24452;DHT22;13350;50.984;5.822;2023-10-13T01:50:57;17.70;99.90
24452;DHT22;13350;50.984;5.822;2023-10-13T01:53:26;17.80;99.90
24452;DHT22;13350;50.984;5.822;2023-10-13T01:55:55;17.80;99.90
24452;DHT22;13350;50.984;5.822;2023-10-13T01:58:22;17.80;99.90
24452;DHT22;13350;50.984;5.822;2023-10-13T02:00:51;17.80;99.90
24452;DHT22;13350;50.984;5.822;2023-10-13T02:03:17;17.80;99.90
24452;DHT22;13350;50.984;5.822;2023-10-13T02:05:47;17.70;99.90
24452;DHT22;13350;50.984;5.822;2023-10-13T02:08:14;17.70;99.90
24452;DHT22;13350;50.984;5.822;2023-10-13T02:10:44;17.70;99.90
24452;DHT22;13350;50.984;5.822;2023-10-13T02:13:13;17.80;99.90
24452;DHT22;13350;50.984;5.822;2023-10-13T02:15:42;17.80;99.90
24452;DHT22;13350;50.984;5.822;2023-10-13T02:18:10;17.80;99.90
24452;DHT22;13350;50.984;5.822;2023-10-13T02:20:35;17.80;99.90
24452;DHT22;13350;50.984;5.822;2023-10-13T02:23:09;17.80;99.90
24452;DHT22;13350;50.984;5.822;2023-10-13T02:25:36;17.80;99.90
24452;DHT22;13350;50.984;5.822;2023-10-13T02:28:08;17.90;99.90
24452;DHT22;13350;50.984;5.822;2023-10-13T02:30:41;17.90;99.90
24452;DHT22;13350;50.984;5.822;2023-10-13T02:33:11;17.90;99.90
24452;DHT22;13350;50.984;5.822;2023-10-13T02:35:38;17.90;99.90
24452;DHT22;13350;50.984;5.822;2023-10-13T02:38:09;17.90;99.90
24452;DHT22;13350;50.984;5.822;2023-10-13T02:40:38;17.90;99.90
24452;DHT22;13350;50.984;5.822;2023-10-13T02:43:05;17.90;99.90
24452;DHT22;13350;50.984;5.822;2023-10-13T02:45:31;17.90;99.90
24452;DHT22;13350;50.984;5.822;2023-10-13T02:48:03;17.90;99.90
24452;DHT22;13350;50.984;5.822;2023-10-13T02:50:39;18.00;99.90
24452;DHT22;13350;50.984;5.822;2023-10-13T02:53:08;18.00;99.90
24452;DHT22;13350;50.984;5.822;2023-10-13T02:55:38;17.90;99.90
24452;DHT22;13350;50.984;5.822;2023-10-13T02:58:05;18.00;99.90
24452;DHT22;13350;50.984;5.822;2023-10-13T03:00:34;17.90;99.90
24452;DHT22;13350;50.984;5.822;2023-10-13T03:03:00;17.90;99.90
24452;DHT22;13350;50.984;5.822;2023-10-13T03:05:28;17.90;99.90
24452;DHT22;13350;50.984;5.822;2023-10-13T03:08:00;17.90;99.90
24452;DHT22;13350;50.984;5.822;2023-10-13T03:10:29;18.00;99.90
24452;DHT22;13350;50.984;5.822;2023-10-13T03:12:55;18.00;99.90
24452;DHT22;13350;50.984;5.822;2023-10-13T03:15:22;18.00;99.90
24452;DHT22;13350;50.984;5.822;2023-10-13T03:17:55;18.00;99.90
24452;DHT22;13350;50.984;5.822;2023-10-13T03:20:24;18.00;99.90
24452;DHT22;13350;50.984;5.822;2023-10-13T03:22:58;18.00;99.90
24452;DHT22;13350;50.984;5.822;2023-10-13T03:25:25;18.00;99.90
24452;DHT22;13350;50.984;5.822;2023-10-13T03:27:55;18.00;99.90
24452;DHT22;13350;50.984;5.822;2023-10-13T03:30:30;18.00;99.90
24452;DHT22;13350;50.984;5.822;2023-10-13T03:33:01;18.00;99.90
24452;DHT22;13350;50.984;5.822;2023-10-13T03:35:32;18.10;99.90
24452;DHT22;13350;50.984;5.822;2023-10-13T03:38:07;18.10;99.90
24452;DHT22;13350;50.984;5.822;2023-10-13T03:40:42;18.10;99.90
24452;DHT22;13350;50.984;5.822;2023-10-13T03:43:14;18.10;99.90
24452;DHT22;13350;50.984;5.822;2023-10-13T03:45:42;18.10;99.90
24452;DHT22;13350;50.984;5.822;2023-10-13T03:48:10;18.10;99.90
24452;DHT22;13350;50.984;5.822;2023-10-13T03:50:46;18.10;99.90
24452;DHT22;13350;50.984;5.822;2023-10-13T03:53:24;18.00;99.90
24452;DHT22;13350;50.984;5.822;2023-10-13T03:55:52;18.00;99.90
24452;DHT22;13350;50.984;5.822;2023-10-13T03:58:33;17.90;99.90
24452;DHT22;13350;50.984;5.822;2023-10-13T04:01:00;18.00;99.90
24452;DHT22;13350;50.984;5.822;2023-10-13T04:03:28;18.00;99.90
24452;DHT22;13350;50.984;5.822;2023-10-13T04:06:04;18.00;99.90
24452;DHT22;13350;50.984;5.822;2023-10-13T04:08:34;18.00;99.90
24452;DHT22;13350;50.984;5.822;2023-10-13T04:11:36;18.00;99.90
24452;DHT22;13350;50.984;5.822;2023-10-13T04:14:25;18.00;99.90
24452;DHT22;13350;50.984;5.822;2023-10-13T04:17:15;18.10;99.90
24452;DHT22;13350;50.984;5.822;2023-10-13T04:19:48;18.00;99.90
24452;DHT22;13350;50.984;5.822;2023-10-13T04:22:28;18.00;99.90
24452;DHT22;13350;50.984;5.822;2023-10-13T04:25:20;18.10;99.90
24452;DHT22;13350;50.984;5.822;2023-10-13T04:28:00;18.10;99.90
24452;DHT22;13350;50.984;5.822;2023-10-13T04:30:40;18.10;99.90
24452;DHT22;13350;50.984;5.822;2023-10-13T04:33:23;18.10;99.90
24452;DHT22;13350;50.984;5.822;2023-10-13T04:36:09;18.10;99.90
24452;DHT22;13350;50.984;5.822;2023-10-13T04:38:39;18.10;99.90
24452;DHT22;13350;50.984;5.822;2023-10-13T04:41:23;18.10;99.90
24452;DHT22;13350;50.984;5.822;2023-10-13T04:43:49;18.20;99.90
24452;DHT22;13350;50.984;5.822;2023-10-13T04:46:22;18.20;99.90
24452;DHT22;13350;50.984;5.822;2023-10-13T04:49:01;18.20;99.90
24452;DHT22;13350;50.984;5.822;2023-10-13T04:51:36;18.20;99.90
24452;DHT22;13350;50.984;5.822;2023-10-13T04:54:24;18.20;99.90
24452;DHT22;13350;50.984;5.822;2023-10-13T04:57:00;18.30;99.90
24452;DHT22;13350;50.984;5.822;2023-10-13T04:59:45;18.30;99.90
24452;DHT22;13350;50.984;5.822;2023-10-13T05:02:29;18.30;99.90
24452;DHT22;13350;50.984;5.822;2023-10-13T05:05:14;18.30;99.90
24452;DHT22;13350;50.984;5.822;2023-10-13T05:08:03;18.40;99.90
24452;DHT22;13350;50.984;5.822;2023-10-13T05:10:48;18.40;99.90
24452;DHT22;13350;50.984;5.822;2023-10-13T05:13:33;18.40;99.90
24452;DHT22;13350;50.984;5.822;2023-10-13T05:16:18;18.30;99.90
24452;DHT22;13350;50.984;5.822;2023-10-13T05:19:02;18.30;99.90
24452;DHT22;13350;50.984;5.822;2023-10-13T05:21:46;18.30;99.90
24452;DHT22;13350;50.984;5.822;2023-10-13T05:24:31;18.30;99.90
24452;DHT22;13350;50.984;5.822;2023-10-13T05:27:15;18.30;99.90
24452;DHT22;13350;50.984;5.822;2023-10-13T05:30:00;18.40;99.90
24452;DHT22;13350;50.984;5.822;2023-10-13T05:32:45;18.40;99.90
24452;DHT22;13350;50.984;5.822;2023-10-13T05:35:30;18.30;99.90
24452;DHT22;13350;50.984;5.822;2023-10-13T05:38:14;18.30;99.90
24452;DHT22;13350;50.984;5.822;2023-10-13T05:40:59;18.30;99.90
24452;DHT22;13350;50.984;5.822;2023-10-13T05:43:44;18.30;99.90
24452;DHT22;13350;50.984;5.822;2023-10-13T05:46:29;18.30;99.90
24452;DHT22;13350;50.984;5.822;2023-10-13T05:49:26;18.40;99.90
24452;DHT22;13350;50.984;5.822;2023-10-13T05:52:15;18.40;99.90
24452;DHT22;13350;50.984;5.822;2023-10-13T05:54:59;18.40;99.90
24452;DHT22;13350;50.984;5.822;2023-10-13T05:57:43;18.40;99.90
24452;DHT22;13350;50.984;5.822;2023-10-13T06:00:28;18.30;99.90
24452;DHT22;13350;50.984;5.822;2023-10-13T06:03:13;18.30;99.90
24452;DHT22;13350;50.984;5.822;2023-10-13T06:05:58;18.30;99.90
24452;DHT22;13350;50.984;5.822;2023-10-13T06:08:42;18.30;99.90
24452;DHT22;13350;50.984;5.822;2023-10-13T06:11:32;18.30;99.90
24452;DHT22;13350;50.984;5.822;2023-10-13T06:14:15;18.30;99.90
24452;DHT22;13350;50.984;5.822;2023-10-13T06:17:00;18.20;99.90
24452;DHT22;13350;50.984;5.822;2023-10-13T06:19:45;18.20;99.90
24452;DHT22;13350;50.984;5.822;2023-10-13T06:22:30;18.30;99.90
24452;DHT22;13350;50.984;5.822;2023-10-13T06:25:14;18.30;99.90
24452;DHT22;13350;50.984;5.822;2023-10-13T06:27:58;18.30;99.90
24452;DHT22;13350;50.984;5.822;2023-10-13T06:30:42;18.30;99.90
24452;DHT22;13350;50.984;5.822;2023-10-13T06:33:12;18.30;99.90
24452;DHT22;13350;50.984;5.822;2023-10-13T06:35:50;18.40;99.90
24452;DHT22;13350;50.984;5.822;2023-10-13T06:38:21;18.40;99.90
24452;DHT22;13350;50.984;5.822;2023-10-13T06:40:48;18.50;99.90
24452;DHT22;13350;50.984;5.822;2023-10-13T06:43:16;18.50;99.90
24452;DHT22;13350;50.984;5.822;2023-10-13T06:45:43;18.50;99.90
24452;DHT22;13350;50.984;5.822;2023-10-13T06:48:15;18.60;99.90
24452;DHT22;13350;50.984;5.822;2023-10-13T06:50:48;18.70;99.90
24452;DHT22;13350;50.984;5.822;2023-10-13T06:53:18;18.70;99.90
24452;DHT22;13350;50.984;5.822;2023-10-13T06:55:48;18.80;99.90
24452;DHT22;13350;50.984;5.822;2023-10-13T06:58:18;18.80;99.90
24452;DHT22;13350;50.984;5.822;2023-10-13T07:00:49;18.80;99.90
24452;DHT22;13350;50.984;5.822;2023-10-13T07:03:20;18.80;99.90
24452;DHT22;13350;50.984;5.822;2023-10-13T07:05:47;18.90;99.90
24452;DHT22;13350;50.984;5.822;2023-10-13T07:08:14;19.00;99.90
24452;DHT22;13350;50.984;5.822;2023-10-13T07:10:49;19.00;99.90
24452;DHT22;13350;50.984;5.822;2023-10-13T07:13:27;19.10;99.90
24452;DHT22;13350;50.984;5.822;2023-10-13T07:15:55;19.10;99.90
24452;DHT22;13350;50.984;5.822;2023-10-13T07:18:31;19.10;99.90
24452;DHT22;13350;50.984;5.822;2023-10-13T07:21:02;19.20;99.90
24452;DHT22;13350;50.984;5.822;2023-10-13T07:23:35;19.20;99.90
24452;DHT22;13350;50.984;5.822;2023-10-13T07:26:04;19.30;99.90
24452;DHT22;13350;50.984;5.822;2023-10-13T07:28:34;19.30;99.90
24452;DHT22;13350;50.984;5.822;2023-10-13T07:31:02;19.30;99.90
24452;DHT22;13350;50.984;5.822;2023-10-13T07:33:41;19.30;99.90
24452;DHT22;13350;50.984;5.822;2023-10-13T07:36:08;19.40;99.90
24452;DHT22;13350;50.984;5.822;2023-10-13T07:38:43;19.40;99.90
24452;DHT22;13350;50.984;5.822;2023-10-13T07:41:15;19.50;99.90
24452;DHT22;13350;50.984;5.822;2023-10-13T07:43:42;19.50;99.90
24452;DHT22;13350;50.984;5.822;2023-10-13T07:46:10;19.60;99.90
24452;DHT22;13350;50.984;5.822;2023-10-13T07:48:37;19.60;99.90
24452;DHT22;13350;50.984;5.822;2023-10-13T07:51:06;19.70;99.90
24452;DHT22;13350;50.984;5.822;2023-10-13T07:53:37;19.80;99.90
24452;DHT22;13350;50.984;5.822;2023-10-13T07:56:06;19.90;99.90
24452;DHT22;13350;50.984;5.822;2023-10-13T07:58:35;20.00;99.90
24452;DHT22;13350;50.984;5.822;2023-10-13T08:01:13;20.10;99.90
24452;DHT22;13350;50.984;5.822;2023-10-13T08:03:44;20.20;99.90
24452;DHT22;13350;50.984;5.822;2023-10-13T08:06:11;20.30;99.90
24452;DHT22;13350;50.984;5.822;2023-10-13T08:08:54;20.30;99.90
24452;DHT22;13350;50.984;5.822;2023-10-13T08:11:30;20.40;99.90
24452;DHT22;13350;50.984;5.822;2023-10-13T08:14:01;20.40;99.90
24452;DHT22;13350;50.984;5.822;2023-10-13T08:16:37;20.50;99.90
24452;DHT22;13350;50.984;5.822;2023-10-13T08:19:18;20.50;99.90
24452;DHT22;13350;50.984;5.822;2023-10-13T08:21:46;20.70;99.90
24452;DHT22;13350;50.984;5.822;2023-10-13T08:24:17;20.70;99.90
24452;DHT22;13350;50.984;5.822;2023-10-13T08:26:54;20.70;99.90
24452;DHT22;13350;50.984;5.822;2023-10-13T08:29:25;20.80;99.90
24452;DHT22;13350;50.984;5.822;2023-10-13T08:32:11;21.00;99.90
24452;DHT22;13350;50.984;5.822;2023-10-13T08:34:48;21.10;99.90
24452;DHT22;13350;50.984;5.822;2023-10-13T08:37:35;21.30;99.90
24452;DHT22;13350;50.984;5.822;2023-10-13T08:40:12;21.60;99.90
24452;DHT22;13350;50.984;5.822;2023-10-13T08:43:10;21.90;99.90
24452;DHT22;13350;50.984;5.822;2023-10-13T08:45:39;21.80;99.90
24452;DHT22;13350;50.984;5.822;2023-10-13T08:48:24;21.80;99.90
24452;DHT22;13350;50.984;5.822;2023-10-13T08:51:01;21.80;99.90
24452;DHT22;13350;50.984;5.822;2023-10-13T08:53:37;22.00;99.90
24452;DHT22;13350;50.984;5.822;2023-10-13T08:56:17;22.00;99.90
24452;DHT22;13350;50.984;5.822;2023-10-13T08:58:58;22.00;99.90
24452;DHT22;13350;50.984;5.822;2023-10-13T09:01:36;21.70;99.90
24452;DHT22;13350;50.984;5.822;2023-10-13T09:04:11;21.70;99.90
24452;DHT22;13350;50.984;5.822;2023-10-13T09:06:47;21.70;99.90
24452;DHT22;13350;50.984;5.822;2023-10-13T09:09:26;22.20;99.90
24452;DHT22;13350;50.984;5.822;2023-10-13T09:11:53;23.10;99.90
24452;DHT22;13350;50.984;5.822;2023-10-13T09:14:33;23.50;99.90
24452;DHT22;13350;50.984;5.822;2023-10-13T09:17:03;23.80;99.90
24452;DHT22;13350;50.984;5.822;2023-10-13T09:19:59;23.90;99.90
24452;DHT22;13350;50.984;5.822;2023-10-13T09:22:46;23.20;99.90
24452;DHT22;13350;50.984;5.822;2023-10-13T09:25:21;23.80;99.90
24452;DHT22;13350;50.984;5.822;2023-10-13T09:27:49;24.10;99.90
24452;DHT22;13350;50.984;5.822;2023-10-13T09:30:19;23.60;99.90
24452;DHT22;13350;50.984;5.822;2023-10-13T09:32:49;23.20;99.90
24452;DHT22;13350;50.984;5.822;2023-10-13T09:35:27;22.90;99.90
24452;DHT22;13350;50.984;5.822;2023-10-13T09:37:54;22.90;99.90
24452;DHT22;13350;50.984;5.822;2023-10-13T09:40:22;23.00;99.90
24452;DHT22;13350;50.984;5.822;2023-10-13T09:42:51;23.00;99.90
24452;DHT22;13350;50.984;5.822;2023-10-13T09:45:23;23.10;99.90
24452;DHT22;13350;50.984;5.822;2023-10-13T09:47:54;23.20;99.90
24452;DHT22;13350;50.984;5.822;2023-10-13T09:50:23;23.60;99.90
24452;DHT22;13350;50.984;5.822;2023-10-13T09:52:51;23.70;99.90
24452;DHT22;13350;50.984;5.822;2023-10-13T09:55:21;24.80;99.90
24452;DHT22;13350;50.984;5.822;2023-10-13T09:57:50;24.60;99.90
24452;DHT22;13350;50.984;5.822;2023-10-13T10:00:23;24.40;99.90
24452;DHT22;13350;50.984;5.822;2023-10-13T10:03:11;24.20;99.90
24452;DHT22;13350;50.984;5.822;2023-10-13T10:05:55;23.90;99.90
24452;DHT22;13350;50.984;5.822;2023-10-13T10:08:29;23.40;99.90
24452;DHT22;13350;50.984;5.822;2023-10-13T10:11:00;23.50;99.90
24452;DHT22;13350;50.984;5.822;2023-10-13T10:13:32;23.80;99.90
24452;DHT22;13350;50.984;5.822;2023-10-13T10:16:02;23.60;99.90
24452;DHT22;13350;50.984;5.822;2023-10-13T10:18:33;23.80;99.90
24452;DHT22;13350;50.984;5.822;2023-10-13T10:21:03;24.40;99.90
24452;DHT22;13350;50.984;5.822;2023-10-13T10:23:33;25.00;99.90
24452;DHT22;13350;50.984;5.822;2023-10-13T10:26:09;25.40;99.90
24452;DHT22;13350;50.984;5.822;2023-10-13T10:28:39;24.60;99.90
24452;DHT22;13350;50.984;5.822;2023-10-13T10:31:07;23.90;99.90
24452;DHT22;13350;50.984;5.822;2023-10-13T10:33:36;23.80;99.90
24452;DHT22;13350;50.984;5.822;2023-10-13T10:36:03;23.90;99.90
24452;DHT22;13350;50.984;5.822;2023-10-13T10:38:30;23.70;99.90
24452;DHT22;13350;50.984;5.822;2023-10-13T10:41:00;23.70;99.90
24452;DHT22;13350;50.984;5.822;2023-10-13T10:43:29;23.50;99.90
24452;DHT22;13350;50.984;5.822;2023-10-13T10:46:07;23.60;99.90
24452;DHT22;13350;50.984;5.822;2023-10-13T10:48:37;23.60;99.90
24452;DHT22;13350;50.984;5.822;2023-10-13T10:51:08;23.30;99.90
24452;DHT22;13350;50.984;5.822;2023-10-13T10:53:46;23.30;99.90
24452;DHT22;13350;50.984;5.822;2023-10-13T10:56:15;23.30;99.90
24452;DHT22;13350;50.984;5.822;2023-10-13T10:59:02;23.40;99.90
24452;DHT22;13350;50.984;5.822;2023-10-13T11:01:30;23.10;99.90
24452;DHT22;13350;50.984;5.822;2023-10-13T11:04:05;23.20;99.90
24452;DHT22;13350;50.984;5.822;2023-10-13T11:06:44;23.90;99.90
24452;DHT22;13350;50.984;5.822;2023-10-13T11:09:12;23.60;99.90
24452;DHT22;13350;50.984;5.822;2023-10-13T11:11:53;23.50;99.90
24452;DHT22;13350;50.984;5.822;2023-10-13T11:14:21;23.70;99.90
24452;DHT22;13350;50.984;5.822;2023-10-13T11:16:49;23.60;99.90
24452;DHT22;13350;50.984;5.822;2023-10-13T11:19:21;23.80;99.90
24452;DHT22;13350;50.984;5.822;2023-10-13T11:21:54;23.80;99.90
24452;DHT22;13350;50.984;5.822;2023-10-13T11:24:21;23.60;99.90
24452;DHT22;13350;50.984;5.822;2023-10-13T11:26:48;23.60;99.90
24452;DHT22;13350;50.984;5.822;2023-10-13T11:29:30;23.50;99.90
24452;DHT22;13350;50.984;5.822;2023-10-13T11:31:57;23.50;99.90
24452;DHT22;13350;50.984;5.822;2023-10-13T11:34:26;23.50;99.90
24452;DHT22;13350;50.984;5.822;2023-10-13T11:37:05;23.50;99.90
24452;DHT22;13350;50.984;5.822;2023-10-13T11:39:53;23.50;99.90
24452;DHT22;13350;50.984;5.822;2023-10-13T11:42:18;23.60;99.90
24452;DHT22;13350;50.984;5.822;2023-10-13T11:44:45;23.80;99.90
24452;DHT22;13350;50.984;5.822;2023-10-13T11:47:26;23.80;99.90
24452;DHT22;13350;50.984;5.822;2023-10-13T11:50:14;24.00;99.90
24452;DHT22;13350;50.984;5.822;2023-10-13T11:52:53;24.20;99.90
24452;DHT22;13350;50.984;5.822;2023-10-13T11:55:19;23.90;99.90
24452;DHT22;13350;50.984;5.822;2023-10-13T11:57:46;23.90;99.90
24452;DHT22;13350;50.984;5.822;2023-10-13T12:00:13;23.70;99.90
24452;DHT22;13350;50.984;5.822;2023-10-13T12:02:52;23.50;99.90
24452;DHT22;13350;50.984;5.822;2023-10-13T12:05:37;23.50;99.90
24452;DHT22;13350;50.984;5.822;2023-10-13T12:08:31;23.50;99.90
24452;DHT22;13350;50.984;5.822;2023-10-13T12:11:04;23.50;99.90
24452;DHT22;13350;50.984;5.822;2023-10-13T12:13:55;23.50;99.90
24452;DHT22;13350;50.984;5.822;2023-10-13T12:16:22;23.70;99.90
24452;DHT22;13350;50.984;5.822;2023-10-13T12:18:59;23.60;99.90
24452;DHT22;13350;50.984;5.822;2023-10-13T12:21:28;23.80;99.90
24452;DHT22;13350;50.984;5.822;2023-10-13T12:23:54;23.70;99.90
24452;DHT22;13350;50.984;5.822;2023-10-13T12:26:21;23.60;99.90
24452;DHT22;13350;50.984;5.822;2023-10-13T12:28:57;23.50;99.90
24452;DHT22;13350;50.984;5.822;2023-10-13T12:31:31;23.60;99.90
24452;DHT22;13350;50.984;5.822;2023-10-13T12:34:04;23.60;99.90
24452;DHT22;13350;50.984;5.822;2023-10-13T12:36:41;23.60;99.90
24452;DHT22;13350;50.984;5.822;2023-10-13T12:39:18;23.70;99.90
24452;DHT22;13350;50.984;5.822;2023-10-13T12:42:03;24.10;99.90
24452;DHT22;13350;50.984;5.822;2023-10-13T12:44:47;23.90;99.90
24452;DHT22;13350;50.984;5.822;2023-10-13T12:47:31;24.10;99.90
24452;DHT22;13350;50.984;5.822;2023-10-13T12:50:15;24.00;99.90
24452;DHT22;13350;50.984;5.822;2023-10-13T12:53:01;24.10;99.90
24452;DHT22;13350;50.984;5.822;2023-10-13T12:55:28;24.20;99.90
24452;DHT22;13350;50.984;5.822;2023-10-13T12:57:55;24.10;99.90
24452;DHT22;13350;50.984;5.822;2023-10-13T13:00:22;24.00;99.90
24452;DHT22;13350;50.984;5.822;2023-10-13T13:02:59;23.90;99.90
24452;DHT22;13350;50.984;5.822;2023-10-13T13:05:26;23.70;99.90
24452;DHT22;13350;50.984;5.822;2023-10-13T13:07:56;23.70;99.90
24452;DHT22;13350;50.984;5.822;2023-10-13T13:10:25;23.50;99.90
24452;DHT22;13350;50.984;5.822;2023-10-13T13:13:08;23.30;99.90
24452;DHT22;13350;50.984;5.822;2023-10-13T13:15:35;23.30;99.90
24452;DHT22;13350;50.984;5.822;2023-10-13T13:18:02;23.50;99.90
24452;DHT22;13350;50.984;5.822;2023-10-13T13:20:37;23.50;99.90
24452;DHT22;13350;50.984;5.822;2023-10-13T13:23:18;23.40;99.90
24452;DHT22;13350;50.984;5.822;2023-10-13T13:25:47;23.40;99.90
24452;DHT22;13350;50.984;5.822;2023-10-13T13:28:14;23.30;99.90
24452;DHT22;13350;50.984;5.822;2023-10-13T13:30:41;23.20;99.90
24452;DHT22;13350;50.984;5.822;2023-10-13T13:33:07;23.20;99.90
24452;DHT22;13350;50.984;5.822;2023-10-13T13:35:37;23.20;99.90
24452;DHT22;13350;50.984;5.822;2023-10-13T13:38:04;23.20;99.90
24452;DHT22;13350;50.984;5.822;2023-10-13T13:40:42;23.30;99.90
24452;DHT22;13350;50.984;5.822;2023-10-13T13:43:15;23.40;99.90
24452;DHT22;13350;50.984;5.822;2023-10-13T13:45:57;23.20;99.90
24452;DHT22;13350;50.984;5.822;2023-10-13T13:48:26;23.20;99.90
24452;DHT22;13350;50.984;5.822;2023-10-13T13:50:54;23.10;99.90
24452;DHT22;13350;50.984;5.822;2023-10-13T13:53:29;23.00;99.90
24452;DHT22;13350;50.984;5.822;2023-10-13T13:56:00;23.00;99.90
24452;DHT22;13350;50.984;5.822;2023-10-13T13:58:29;22.90;99.90
24452;DHT22;13350;50.984;5.822;2023-10-13T14:00:59;22.90;99.90
24452;DHT22;13350;50.984;5.822;2023-10-13T14:03:26;22.70;99.90
24452;DHT22;13350;50.984;5.822;2023-10-13T14:05:57;22.60;99.90
24452;DHT22;13350;50.984;5.822;2023-10-13T14:08:25;22.60;99.90
24452;DHT22;13350;50.984;5.822;2023-10-13T14:10:52;22.60;99.90
24452;DHT22;13350;50.984;5.822;2023-10-13T14:13:38;22.60;99.90
24452;DHT22;13350;50.984;5.822;2023-10-13T14:16:15;22.60;99.90
24452;DHT22;13350;50.984;5.822;2023-10-13T14:18:46;22.60;99.90
24452;DHT22;13350;50.984;5.822;2023-10-13T14:21:13;22.50;99.90
24452;DHT22;13350;50.984;5.822;2023-10-13T14:23:43;22.50;99.90
24452;DHT22;13350;50.984;5.822;2023-10-13T14:26:12;22.40;99.90
24452;DHT22;13350;50.984;5.822;2023-10-13T14:28:40;22.40;99.90
24452;DHT22;13350;50.984;5.822;2023-10-13T14:31:17;22.40;99.90
24452;DHT22;13350;50.984;5.822;2023-10-13T14:33:45;22.30;99.90
24452;DHT22;13350;50.984;5.822;2023-10-13T14:36:13;22.30;99.90
24452;DHT22;13350;50.984;5.822;2023-10-13T14:38:45;22.40;99.90
24452;DHT22;13350;50.984;5.822;2023-10-13T14:41:15;22.30;99.90
24452;DHT22;13350;50.984;5.822;2023-10-13T14:43:43;22.30;99.90
24452;DHT22;13350;50.984;5.822;2023-10-13T14:46:13;22.30;99.90
24452;DHT22;13350;50.984;5.822;2023-10-13T14:48:40;22.20;99.90
24452;DHT22;13350;50.984;5.822;2023-10-13T14:51:08;22.30;99.90
24452;DHT22;13350;50.984;5.822;2023-10-13T14:53:39;22.30;99.90
24452;DHT22;13350;50.984;5.822;2023-10-13T14:56:09;22.20;99.90
24452;DHT22;13350;50.984;5.822;2023-10-13T14:58:36;22.20;99.90
24452;DHT22;13350;50.984;5.822;2023-10-13T15:01:12;22.20;99.90
24452;DHT22;13350;50.984;5.822;2023-10-13T15:03:41;22.10;99.90
24452;DHT22;13350;50.984;5.822;2023-10-13T15:06:08;22.00;99.90
24452;DHT22;13350;50.984;5.822;2023-10-13T15:08:43;22.00;99.90
24452;DHT22;13350;50.984;5.822;2023-10-13T15:11:11;22.10;99.90
24452;DHT22;13350;50.984;5.822;2023-10-13T15:13:38;22.10;99.90
24452;DHT22;13350;50.984;5.822;2023-10-13T15:16:14;22.00;99.90
24452;DHT22;13350;50.984;5.822;2023-10-13T15:18:42;22.00;99.90
24452;DHT22;13350;50.984;5.822;2023-10-13T15:21:09;21.70;99.90
24452;DHT22;13350;50.984;5.822;2023-10-13T15:23:38;21.50;99.90
24452;DHT22;13350;50.984;5.822;2023-10-13T15:26:08;21.50;99.90
24452;DHT22;13350;50.984;5.822;2023-10-13T15:28:36;21.60;99.90
24452;DHT22;13350;50.984;5.822;2023-10-13T15:31:10;21.70;99.90
24452;DHT22;13350;50.984;5.822;2023-10-13T15:33:51;21.60;99.90
24452;DHT22;13350;50.984;5.822;2023-10-13T15:36:17;21.60;99.90
24452;DHT22;13350;50.984;5.822;2023-10-13T15:38:45;21.70;99.90
24452;DHT22;13350;50.984;5.822;2023-10-13T15:41:12;21.80;99.90
24452;DHT22;13350;50.984;5.822;2023-10-13T15:43:39;21.70;99.90
24452;DHT22;13350;50.984;5.822;2023-10-13T15:46:15;21.70;99.90
24452;DHT22;13350;50.984;5.822;2023-10-13T15:48:42;21.60;99.90
24452;DHT22;13350;50.984;5.822;2023-10-13T15:51:12;21.60;99.90
24452;DHT22;13350;50.984;5.822;2023-10-13T15:53:39;21.50;99.90
24452;DHT22;13350;50.984;5.822;2023-10-13T15:56:07;21.30;99.90
24452;DHT22;13350;50.984;5.822;2023-10-13T15:58:37;21.20;99.90
24452;DHT22;13350;50.984;5.822;2023-10-13T16:01:04;21.20;99.90
24452;DHT22;13350;50.984;5.822;2023-10-13T16:03:33;21.30;99.90
24452;DHT22;13350;50.984;5.822;2023-10-13T16:06:01;21.40;99.90
24452;DHT22;13350;50.984;5.822;2023-10-13T16:08:31;21.40;99.90